sensor_id;sensor_type;location;lat;lon;timestamp;temperature;humidity
8862;DHT22;4799;50.996;4.754;2024-03-02T00:00:07;7.50;99.90
8862;DHT22;4799;50.996;4.754;2024-03-02T00:02:43;7.40;99.90
8862;DHT22;4799;50.996;4.754;2024-03-02T00:05:21;7.40;99.90
8862;DHT22;4799;50.996;4.754;2024-03-02T00:07:55;7.40;99.90
8862;DHT22;4799;50.996;4.754;2024-03-02T00:10:26;7.40;99.90
8862;DHT22;4799;50.996;4.754;2024-03-02T00:12:55;7.40;99.90
8862;DHT22;4799;50.996;4.754;2024-03-02T00:18:16;7.40;99.90
8862;DHT22;4799;50.996;4.754;2024-03-02T00:20:44;7.40;99.90
8862;DHT22;4799;50.996;4.754;2024-03-02T00:23:10;7.30;99.90
8862;DHT22;4799;50.996;4.754;2024-03-02T00:25:41;7.40;99.90
8862;DHT22;4799;50.996;4.754;2024-03-02T00:28:14;7.30;99.90
8862;DHT22;4799;50.996;4.754;2024-03-02T00:30:51;7.30;99.90
8862;DHT22;4799;50.996;4.754;2024-03-02T00:33:19;7.30;99.90
8862;DHT22;4799;50.996;4.754;2024-03-02T00:35:45;7.30;99.90
8862;DHT22;4799;50.996;4.754;2024-03-02T00:38:12;7.30;99.90
8862;DHT22;4799;50.996;4.754;2024-03-02T00:40:38;7.30;99.90
8862;DHT22;4799;50.996;4.754;2024-03-02T00:43:04;7.30;99.90
8862;DHT22;4799;50.996;4.754;2024-03-02T00:45:30;7.30;99.90
8862;DHT22;4799;50.996;4.754;2024-03-02T00:47:55;7.20;99.90
8862;DHT22;4799;50.996;4.754;2024-03-02T00:50:21;7.30;99.90
8862;DHT22;4799;50.996;4.754;2024-03-02T00:52:47;7.20;99.90
8862;DHT22;4799;50.996;4.754;2024-03-02T00:55:16;7.20;99.90
8862;DHT22;4799;50.996;4.754;2024-03-02T00:57:42;7.20;99.90
8862;DHT22;4799;50.996;4.754;2024-03-02T01:00:10;7.20;99.90
8862;DHT22;4799;50.996;4.754;2024-03-02T01:02:38;7.20;99.90
8862;DHT22;4799;50.996;4.754;2024-03-02T01:05:04;7.10;99.90
8862;DHT22;4799;50.996;4.754;2024-03-02T01:07:30;7.20;99.90
8862;DHT22;4799;50.996;4.754;2024-03-02T01:09:56;7.10;99.90
8862;DHT22;4799;50.996;4.754;2024-03-02T01:12:22;7.20;99.90
8862;DHT22;4799;50.996;4.754;2024-03-02T01:14:47;7.10;99.90
8862;DHT22;4799;50.996;4.754;2024-03-02T01:17:13;7.10;99.90
8862;DHT22;4799;50.996;4.754;2024-03-02T01:19:41;7.10;99.90
8862;DHT22;4799;50.996;4.754;2024-03-02T01:22:07;7.10;99.90
8862;DHT22;4799;50.996;4.754;2024-03-02T01:24:33;7.00;99.90
8862;DHT22;4799;50.996;4.754;2024-03-02T01:26:59;7.00;99.90
8862;DHT22;4799;50.996;4.754;2024-03-02T01:29:25;7.00;99.90
8862;DHT22;4799;50.996;4.754;2024-03-02T01:31:50;7.00;99.90
8862;DHT22;4799;50.996;4.754;2024-03-02T01:34:17;7.00;99.90
8862;DHT22;4799;50.996;4.754;2024-03-02T01:36:42;6.90;99.90
8862;DHT22;4799;50.996;4.754;2024-03-02T01:39:08;6.90;99.90
8862;DHT22;4799;50.996;4.754;2024-03-02T01:41:35;6.90;99.90
8862;DHT22;4799;50.996;4.754;2024-03-02T01:44:00;6.90;99.90
8862;DHT22;4799;50.996;4.754;2024-03-02T01:46:26;6.90;99.90
8862;DHT22;4799;50.996;4.754;2024-03-02T01:48:52;6.90;99.90
8862;DHT22;4799;50.996;4.754;2024-03-02T01:51:18;6.90;99.90
8862;DHT22;4799;50.996;4.754;2024-03-02T01:53:43;6.90;99.90
8862;DHT22;4799;50.996;4.754;2024-03-02T01:56:09;6.80;99.90
8862;DHT22;4799;50.996;4.754;2024-03-02T01:58:35;6.80;99.90
8862;DHT22;4799;50.996;4.754;2024-03-02T02:01:01;6.80;99.90
8862;DHT22;4799;50.996;4.754;2024-03-02T02:03:27;6.70;99.90
8862;DHT22;4799;50.996;4.754;2024-03-02T02:05:53;6.60;99.90
8862;DHT22;4799;50.996;4.754;2024-03-02T02:08:18;6.60;99.90
8862;DHT22;4799;50.996;4.754;2024-03-02T02:10:44;6.50;99.90
8862;DHT22;4799;50.996;4.754;2024-03-02T02:13:10;6.50;99.90
8862;DHT22;4799;50.996;4.754;2024-03-02T02:15:35;6.40;99.90
8862;DHT22;4799;50.996;4.754;2024-03-02T02:18:02;6.40;99.90
8862;DHT22;4799;50.996;4.754;2024-03-02T02:20:29;6.40;99.90
8862;DHT22;4799;50.996;4.754;2024-03-02T02:23:04;6.50;99.90
8862;DHT22;4799;50.996;4.754;2024-03-02T02:25:35;6.50;99.90
8862;DHT22;4799;50.996;4.754;2024-03-02T02:28:00;6.60;99.90
8862;DHT22;4799;50.996;4.754;2024-03-02T02:30:30;6.60;99.90
8862;DHT22;4799;50.996;4.754;2024-03-02T02:32:56;6.70;99.90
8862;DHT22;4799;50.996;4.754;2024-03-02T02:35:22;6.70;99.90
8862;DHT22;4799;50.996;4.754;2024-03-02T02:37:50;6.70;99.90
8862;DHT22;4799;50.996;4.754;2024-03-02T02:40:17;6.70;99.90
8862;DHT22;4799;50.996;4.754;2024-03-02T02:42:46;6.70;99.90
8862;DHT22;4799;50.996;4.754;2024-03-02T02:45:12;6.80;99.90
8862;DHT22;4799;50.996;4.754;2024-03-02T02:47:40;6.80;99.90
8862;DHT22;4799;50.996;4.754;2024-03-02T02:50:10;6.80;99.90
8862;DHT22;4799;50.996;4.754;2024-03-02T02:52:38;6.80;99.90
8862;DHT22;4799;50.996;4.754;2024-03-02T02:55:07;6.70;99.90
8862;DHT22;4799;50.996;4.754;2024-03-02T02:57:34;6.80;99.90
8862;DHT22;4799;50.996;4.754;2024-03-02T03:00:12;6.80;99.90
8862;DHT22;4799;50.996;4.754;2024-03-02T03:02:46;6.80;99.90
8862;DHT22;4799;50.996;4.754;2024-03-02T03:05:14;6.70;99.90
8862;DHT22;4799;50.996;4.754;2024-03-02T03:07:41;6.70;99.90
8862;DHT22;4799;50.996;4.754;2024-03-02T03:10:07;6.60;99.90
8862;DHT22;4799;50.996;4.754;2024-03-02T03:12:34;6.50;99.90
8862;DHT22;4799;50.996;4.754;2024-03-02T03:15:00;6.40;99.90
8862;DHT22;4799;50.996;4.754;2024-03-02T03:17:26;6.40;99.90
8862;DHT22;4799;50.996;4.754;2024-03-02T03:19:55;6.40;99.90
8862;DHT22;4799;50.996;4.754;2024-03-02T03:22:20;6.30;99.90
8862;DHT22;4799;50.996;4.754;2024-03-02T03:24:46;6.40;99.90
8862;DHT22;4799;50.996;4.754;2024-03-02T03:27:12;6.30;99.90
8862;DHT22;4799;50.996;4.754;2024-03-02T03:29:38;6.20;99.90
8862;DHT22;4799;50.996;4.754;2024-03-02T03:32:03;6.10;99.90
8862;DHT22;4799;50.996;4.754;2024-03-02T03:34:33;6.00;99.90
8862;DHT22;4799;50.996;4.754;2024-03-02T03:36:58;5.90;99.90
8862;DHT22;4799;50.996;4.754;2024-03-02T03:39:24;5.80;99.90
8862;DHT22;4799;50.996;4.754;2024-03-02T03:41:50;5.70;99.90
8862;DHT22;4799;50.996;4.754;2024-03-02T03:44:16;5.70;99.90
8862;DHT22;4799;50.996;4.754;2024-03-02T03:46:42;5.60;99.90
8862;DHT22;4799;50.996;4.754;2024-03-02T03:49:07;5.50;99.90
8862;DHT22;4799;50.996;4.754;2024-03-02T03:51:33;5.50;99.90
8862;DHT22;4799;50.996;4.754;2024-03-02T03:53:59;5.40;99.90
8862;DHT22;4799;50.996;4.754;2024-03-02T03:56:25;5.40;99.90
8862;DHT22;4799;50.996;4.754;2024-03-02T03:58:51;5.30;99.90
8862;DHT22;4799;50.996;4.754;2024-03-02T04:01:16;5.30;99.90
8862;DHT22;4799;50.996;4.754;2024-03-02T04:03:42;5.20;99.90
8862;DHT22;4799;50.996;4.754;2024-03-02T04:06:08;5.20;99.90
8862;DHT22;4799;50.996;4.754;2024-03-02T04:08:33;5.20;99.90
8862;DHT22;4799;50.996;4.754;2024-03-02T04:10:59;5.10;99.90
8862;DHT22;4799;50.996;4.754;2024-03-02T04:13:25;5.10;99.90
8862;DHT22;4799;50.996;4.754;2024-03-02T04:15:50;5.10;99.90
8862;DHT22;4799;50.996;4.754;2024-03-02T04:18:16;5.10;99.90
8862;DHT22;4799;50.996;4.754;2024-03-02T04:20:42;5.10;99.90
8862;DHT22;4799;50.996;4.754;2024-03-02T04:23:07;5.10;99.90
8862;DHT22;4799;50.996;4.754;2024-03-02T04:25:33;5.00;99.90
8862;DHT22;4799;50.996;4.754;2024-03-02T04:27:59;5.10;99.90
8862;DHT22;4799;50.996;4.754;2024-03-02T04:30:25;5.10;99.90
8862;DHT22;4799;50.996;4.754;2024-03-02T04:32:50;5.10;99.90
8862;DHT22;4799;50.996;4.754;2024-03-02T04:35:16;5.00;99.90
8862;DHT22;4799;50.996;4.754;2024-03-02T04:37:42;5.00;99.90
8862;DHT22;4799;50.996;4.754;2024-03-02T04:40:08;5.00;99.90
8862;DHT22;4799;50.996;4.754;2024-03-02T04:42:35;4.90;99.90
8862;DHT22;4799;50.996;4.754;2024-03-02T04:45:01;4.90;99.90
8862;DHT22;4799;50.996;4.754;2024-03-02T04:47:27;4.80;99.90
8862;DHT22;4799;50.996;4.754;2024-03-02T04:49:53;4.80;99.90
8862;DHT22;4799;50.996;4.754;2024-03-02T04:52:18;4.80;99.90
8862;DHT22;4799;50.996;4.754;2024-03-02T04:54:44;4.70;99.90
8862;DHT22;4799;50.996;4.754;2024-03-02T04:57:28;4.70;99.90
8862;DHT22;4799;50.996;4.754;2024-03-02T04:59:54;4.60;99.90
8862;DHT22;4799;50.996;4.754;2024-03-02T05:02:20;4.60;99.90
8862;DHT22;4799;50.996;4.754;2024-03-02T05:04:45;4.60;99.90
8862;DHT22;4799;50.996;4.754;2024-03-02T05:07:11;4.60;99.90
8862;DHT22;4799;50.996;4.754;2024-03-02T05:09:37;4.60;99.90
8862;DHT22;4799;50.996;4.754;2024-03-02T05:12:02;4.60;99.90
8862;DHT22;4799;50.996;4.754;2024-03-02T05:14:42;4.60;99.90
8862;DHT22;4799;50.996;4.754;2024-03-02T05:17:08;4.60;99.90
8862;DHT22;4799;50.996;4.754;2024-03-02T05:19:34;4.60;99.90
8862;DHT22;4799;50.996;4.754;2024-03-02T05:22:00;4.60;99.90
8862;DHT22;4799;50.996;4.754;2024-03-02T05:24:25;4.60;99.90
8862;DHT22;4799;50.996;4.754;2024-03-02T05:26:54;4.60;99.90
8862;DHT22;4799;50.996;4.754;2024-03-02T05:29:20;4.50;99.90
8862;DHT22;4799;50.996;4.754;2024-03-02T05:31:46;4.50;99.90
8862;DHT22;4799;50.996;4.754;2024-03-02T05:34:12;4.50;99.90
8862;DHT22;4799;50.996;4.754;2024-03-02T05:36:38;4.50;99.90
8862;DHT22;4799;50.996;4.754;2024-03-02T05:39:05;4.50;99.90
8862;DHT22;4799;50.996;4.754;2024-03-02T05:41:34;4.50;99.90
8862;DHT22;4799;50.996;4.754;2024-03-02T05:44:00;4.50;99.90
8862;DHT22;4799;50.996;4.754;2024-03-02T05:46:27;4.50;99.90
8862;DHT22;4799;50.996;4.754;2024-03-02T05:48:53;4.50;99.90
8862;DHT22;4799;50.996;4.754;2024-03-02T05:51:19;4.50;99.90
8862;DHT22;4799;50.996;4.754;2024-03-02T05:53:44;4.50;99.90
8862;DHT22;4799;50.996;4.754;2024-03-02T05:56:10;4.50;99.90
8862;DHT22;4799;50.996;4.754;2024-03-02T05:58:37;4.40;99.90
8862;DHT22;4799;50.996;4.754;2024-03-02T06:01:15;4.40;99.90
8862;DHT22;4799;50.996;4.754;2024-03-02T06:03:43;4.40;99.90
8862;DHT22;4799;50.996;4.754;2024-03-02T06:06:09;4.40;99.90
8862;DHT22;4799;50.996;4.754;2024-03-02T06:08:35;4.50;99.90
8862;DHT22;4799;50.996;4.754;2024-03-02T06:11:01;4.50;99.90
8862;DHT22;4799;50.996;4.754;2024-03-02T06:13:27;4.50;99.90
8862;DHT22;4799;50.996;4.754;2024-03-02T06:15:53;4.50;99.90
8862;DHT22;4799;50.996;4.754;2024-03-02T06:18:18;4.50;99.90
8862;DHT22;4799;50.996;4.754;2024-03-02T06:20:44;4.50;99.90
8862;DHT22;4799;50.996;4.754;2024-03-02T06:23:10;4.50;99.90
8862;DHT22;4799;50.996;4.754;2024-03-02T06:25:36;4.50;99.90
8862;DHT22;4799;50.996;4.754;2024-03-02T06:28:01;4.50;99.90
8862;DHT22;4799;50.996;4.754;2024-03-02T06:30:27;4.50;99.90
8862;DHT22;4799;50.996;4.754;2024-03-02T06:32:53;4.40;99.90
8862;DHT22;4799;50.996;4.754;2024-03-02T06:35:19;4.40;99.90
8862;DHT22;4799;50.996;4.754;2024-03-02T06:37:45;4.50;99.90
8862;DHT22;4799;50.996;4.754;2024-03-02T06:40:10;4.50;99.90
8862;DHT22;4799;50.996;4.754;2024-03-02T06:42:36;4.50;99.90
8862;DHT22;4799;50.996;4.754;2024-03-02T06:45:03;4.50;99.90
8862;DHT22;4799;50.996;4.754;2024-03-02T06:47:29;4.50;99.90
8862;DHT22;4799;50.996;4.754;2024-03-02T06:49:55;4.50;99.90
8862;DHT22;4799;50.996;4.754;2024-03-02T06:52:21;4.40;99.90
8862;DHT22;4799;50.996;4.754;2024-03-02T06:54:46;4.40;99.90
8862;DHT22;4799;50.996;4.754;2024-03-02T06:57:12;4.40;99.90
8862;DHT22;4799;50.996;4.754;2024-03-02T06:59:38;4.40;99.90
8862;DHT22;4799;50.996;4.754;2024-03-02T07:02:04;4.40;99.90
8862;DHT22;4799;50.996;4.754;2024-03-02T07:04:30;4.40;99.90
8862;DHT22;4799;50.996;4.754;2024-03-02T07:06:55;4.40;99.90
8862;DHT22;4799;50.996;4.754;2024-03-02T07:09:21;4.40;99.90
8862;DHT22;4799;50.996;4.754;2024-03-02T07:11:50;4.40;99.90
8862;DHT22;4799;50.996;4.754;2024-03-02T07:14:16;4.40;99.90
8862;DHT22;4799;50.996;4.754;2024-03-02T07:16:41;4.40;99.90
8862;DHT22;4799;50.996;4.754;2024-03-02T07:19:09;4.40;99.90
8862;DHT22;4799;50.996;4.754;2024-03-02T07:21:34;4.50;99.90
8862;DHT22;4799;50.996;4.754;2024-03-02T07:24:00;4.50;99.90
8862;DHT22;4799;50.996;4.754;2024-03-02T07:26:29;4.50;99.90
8862;DHT22;4799;50.996;4.754;2024-03-02T07:28:57;4.60;99.90
8862;DHT22;4799;50.996;4.754;2024-03-02T07:31:23;4.60;99.90
8862;DHT22;4799;50.996;4.754;2024-03-02T07:33:48;4.70;99.90
8862;DHT22;4799;50.996;4.754;2024-03-02T07:36:14;4.70;99.90
8862;DHT22;4799;50.996;4.754;2024-03-02T07:38:40;4.80;99.90
8862;DHT22;4799;50.996;4.754;2024-03-02T07:41:08;4.80;99.90
8862;DHT22;4799;50.996;4.754;2024-03-02T07:43:34;4.80;99.90
8862;DHT22;4799;50.996;4.754;2024-03-02T07:46:00;4.90;99.90
8862;DHT22;4799;50.996;4.754;2024-03-02T07:48:26;4.90;99.90
8862;DHT22;4799;50.996;4.754;2024-03-02T07:50:52;5.00;99.90
8862;DHT22;4799;50.996;4.754;2024-03-02T07:53:18;5.00;99.90
8862;DHT22;4799;50.996;4.754;2024-03-02T07:55:44;5.00;99.90
8862;DHT22;4799;50.996;4.754;2024-03-02T07:58:09;5.10;99.90
8862;DHT22;4799;50.996;4.754;2024-03-02T08:00:39;5.10;99.90
8862;DHT22;4799;50.996;4.754;2024-03-02T08:03:05;5.20;99.90
8862;DHT22;4799;50.996;4.754;2024-03-02T08:05:32;5.30;99.90
8862;DHT22;4799;50.996;4.754;2024-03-02T08:07:57;5.40;99.90
8862;DHT22;4799;50.996;4.754;2024-03-02T08:10:23;5.50;99.90
8862;DHT22;4799;50.996;4.754;2024-03-02T08:12:49;5.60;99.90
8862;DHT22;4799;50.996;4.754;2024-03-02T08:15:15;5.60;99.90
8862;DHT22;4799;50.996;4.754;2024-03-02T08:17:40;5.70;99.90
8862;DHT22;4799;50.996;4.754;2024-03-02T08:20:14;5.80;99.90
8862;DHT22;4799;50.996;4.754;2024-03-02T08:22:40;5.90;99.90
8862;DHT22;4799;50.996;4.754;2024-03-02T08:25:06;6.00;99.90
8862;DHT22;4799;50.996;4.754;2024-03-02T08:27:32;6.00;99.90
8862;DHT22;4799;50.996;4.754;2024-03-02T08:29:58;6.10;99.90
8862;DHT22;4799;50.996;4.754;2024-03-02T08:32:24;6.20;99.90
8862;DHT22;4799;50.996;4.754;2024-03-02T08:34:49;6.30;99.90
8862;DHT22;4799;50.996;4.754;2024-03-02T08:37:15;6.40;99.90
8862;DHT22;4799;50.996;4.754;2024-03-02T08:39:41;6.40;99.90
8862;DHT22;4799;50.996;4.754;2024-03-02T08:42:07;6.50;99.90
8862;DHT22;4799;50.996;4.754;2024-03-02T08:44:33;6.60;99.90
8862;DHT22;4799;50.996;4.754;2024-03-02T08:46:59;6.70;99.90
8862;DHT22;4799;50.996;4.754;2024-03-02T08:49:24;6.70;99.90
8862;DHT22;4799;50.996;4.754;2024-03-02T08:51:50;6.80;99.90
8862;DHT22;4799;50.996;4.754;2024-03-02T08:54:23;6.90;99.90
8862;DHT22;4799;50.996;4.754;2024-03-02T08:56:49;6.90;99.90
8862;DHT22;4799;50.996;4.754;2024-03-02T08:59:16;7.00;99.90
8862;DHT22;4799;50.996;4.754;2024-03-02T09:01:42;7.10;99.90
8862;DHT22;4799;50.996;4.754;2024-03-02T09:04:08;7.20;99.90
8862;DHT22;4799;50.996;4.754;2024-03-02T09:06:34;7.30;99.90
8862;DHT22;4799;50.996;4.754;2024-03-02T09:09:00;7.30;99.90
8862;DHT22;4799;50.996;4.754;2024-03-02T09:11:26;7.40;99.90
8862;DHT22;4799;50.996;4.754;2024-03-02T09:13:52;7.50;99.90
8862;DHT22;4799;50.996;4.754;2024-03-02T09:16:18;7.50;99.90
8862;DHT22;4799;50.996;4.754;2024-03-02T09:18:45;7.60;99.90
8862;DHT22;4799;50.996;4.754;2024-03-02T09:21:10;7.70;99.90
8862;DHT22;4799;50.996;4.754;2024-03-02T09:23:36;7.70;99.90
8862;DHT22;4799;50.996;4.754;2024-03-02T09:26:02;7.80;99.90
8862;DHT22;4799;50.996;4.754;2024-03-02T09:28:28;7.90;99.90
8862;DHT22;4799;50.996;4.754;2024-03-02T09:30:54;8.00;99.90
8862;DHT22;4799;50.996;4.754;2024-03-02T09:33:20;8.10;99.90
8862;DHT22;4799;50.996;4.754;2024-03-02T09:35:46;8.10;99.90
8862;DHT22;4799;50.996;4.754;2024-03-02T09:38:12;8.20;99.90
8862;DHT22;4799;50.996;4.754;2024-03-02T09:40:37;8.20;99.90
8862;DHT22;4799;50.996;4.754;2024-03-02T09:43:03;8.30;99.90
8862;DHT22;4799;50.996;4.754;2024-03-02T09:45:30;8.40;99.90
8862;DHT22;4799;50.996;4.754;2024-03-02T09:47:55;8.50;99.90
8862;DHT22;4799;50.996;4.754;2024-03-02T09:50:21;8.50;99.90
8862;DHT22;4799;50.996;4.754;2024-03-02T09:52:50;8.50;99.90
8862;DHT22;4799;50.996;4.754;2024-03-02T09:55:18;8.60;99.90
8862;DHT22;4799;50.996;4.754;2024-03-02T09:57:45;8.70;99.90
8862;DHT22;4799;50.996;4.754;2024-03-02T10:00:12;8.80;99.90
8862;DHT22;4799;50.996;4.754;2024-03-02T10:02:41;8.90;99.90
8862;DHT22;4799;50.996;4.754;2024-03-02T10:05:08;9.00;99.90
8862;DHT22;4799;50.996;4.754;2024-03-02T10:07:34;9.10;99.90
8862;DHT22;4799;50.996;4.754;2024-03-02T10:10:15;9.20;99.90
8862;DHT22;4799;50.996;4.754;2024-03-02T10:12:41;9.20;99.90
8862;DHT22;4799;50.996;4.754;2024-03-02T10:15:07;9.30;99.90
8862;DHT22;4799;50.996;4.754;2024-03-02T10:17:34;9.50;99.90
8862;DHT22;4799;50.996;4.754;2024-03-02T10:22:49;9.90;99.90
8862;DHT22;4799;50.996;4.754;2024-03-02T10:25:33;10.10;99.90
8862;DHT22;4799;50.996;4.754;2024-03-02T10:28:00;10.20;99.90
8862;DHT22;4799;50.996;4.754;2024-03-02T10:30:29;10.30;99.90
8862;DHT22;4799;50.996;4.754;2024-03-02T10:32:55;10.30;99.90
8862;DHT22;4799;50.996;4.754;2024-03-02T10:35:22;10.30;99.90
8862;DHT22;4799;50.996;4.754;2024-03-02T10:37:49;10.40;99.90
8862;DHT22;4799;50.996;4.754;2024-03-02T10:40:15;10.40;99.90
8862;DHT22;4799;50.996;4.754;2024-03-02T10:42:42;10.40;99.90
8862;DHT22;4799;50.996;4.754;2024-03-02T10:45:09;10.40;99.90
8862;DHT22;4799;50.996;4.754;2024-03-02T10:47:38;10.50;99.90
8862;DHT22;4799;50.996;4.754;2024-03-02T10:50:04;10.60;99.90
8862;DHT22;4799;50.996;4.754;2024-03-02T10:52:39;10.60;99.90
8862;DHT22;4799;50.996;4.754;2024-03-02T10:55:06;10.60;99.90
8862;DHT22;4799;50.996;4.754;2024-03-02T10:57:52;10.60;99.90
8862;DHT22;4799;50.996;4.754;2024-03-02T11:00:19;10.60;99.90
8862;DHT22;4799;50.996;4.754;2024-03-02T11:02:52;10.80;99.90
8862;DHT22;4799;50.996;4.754;2024-03-02T11:05:33;10.80;99.90
8862;DHT22;4799;50.996;4.754;2024-03-02T11:08:07;10.90;99.90
8862;DHT22;4799;50.996;4.754;2024-03-02T11:10:51;11.00;99.90
8862;DHT22;4799;50.996;4.754;2024-03-02T11:13:30;11.00;99.90
8862;DHT22;4799;50.996;4.754;2024-03-02T11:16:01;11.10;99.90
8862;DHT22;4799;50.996;4.754;2024-03-02T11:18:29;11.20;99.90
8862;DHT22;4799;50.996;4.754;2024-03-02T11:20:55;11.20;99.90
8862;DHT22;4799;50.996;4.754;2024-03-02T11:23:32;11.20;99.90
8862;DHT22;4799;50.996;4.754;2024-03-02T11:26:20;11.20;99.90
8862;DHT22;4799;50.996;4.754;2024-03-02T11:28:46;11.40;99.90
8862;DHT22;4799;50.996;4.754;2024-03-02T11:31:12;11.60;99.90
8862;DHT22;4799;50.996;4.754;2024-03-02T11:33:38;11.80;99.90
8862;DHT22;4799;50.996;4.754;2024-03-02T11:36:06;11.90;99.90
8862;DHT22;4799;50.996;4.754;2024-03-02T11:38:33;11.90;99.90
8862;DHT22;4799;50.996;4.754;2024-03-02T11:41:01;11.90;99.90
8862;DHT22;4799;50.996;4.754;2024-03-02T11:43:29;11.80;99.90
8862;DHT22;4799;50.996;4.754;2024-03-02T11:45:59;11.90;99.90
8862;DHT22;4799;50.996;4.754;2024-03-02T11:48:25;12.00;99.90
8862;DHT22;4799;50.996;4.754;2024-03-02T11:50:52;12.10;99.90
8862;DHT22;4799;50.996;4.754;2024-03-02T11:53:20;12.20;99.90
8862;DHT22;4799;50.996;4.754;2024-03-02T11:55:47;12.40;99.90
8862;DHT22;4799;50.996;4.754;2024-03-02T11:58:17;12.50;99.90
8862;DHT22;4799;50.996;4.754;2024-03-02T12:00:46;12.50;99.90
8862;DHT22;4799;50.996;4.754;2024-03-02T12:03:13;12.50;99.90
8862;DHT22;4799;50.996;4.754;2024-03-02T12:05:39;12.60;99.90
8862;DHT22;4799;50.996;4.754;2024-03-02T12:08:06;12.70;99.90
8862;DHT22;4799;50.996;4.754;2024-03-02T12:10:33;12.70;99.90
8862;DHT22;4799;50.996;4.754;2024-03-02T12:13:01;12.80;99.90
8862;DHT22;4799;50.996;4.754;2024-03-02T12:15:28;12.90;99.90
8862;DHT22;4799;50.996;4.754;2024-03-02T12:17:59;13.00;99.90
8862;DHT22;4799;50.996;4.754;2024-03-02T12:20:26;13.00;99.90
8862;DHT22;4799;50.996;4.754;2024-03-02T12:22:53;13.00;99.90
8862;DHT22;4799;50.996;4.754;2024-03-02T12:25:23;13.00;99.90
8862;DHT22;4799;50.996;4.754;2024-03-02T12:27:51;13.00;99.90
8862;DHT22;4799;50.996;4.754;2024-03-02T12:30:18;13.20;99.90
8862;DHT22;4799;50.996;4.754;2024-03-02T12:32:44;13.30;99.90
8862;DHT22;4799;50.996;4.754;2024-03-02T12:35:11;13.40;99.90
8862;DHT22;4799;50.996;4.754;2024-03-02T12:37:51;13.40;99.90
8862;DHT22;4799;50.996;4.754;2024-03-02T12:40:19;13.40;99.90
8862;DHT22;4799;50.996;4.754;2024-03-02T12:42:46;13.50;99.90
8862;DHT22;4799;50.996;4.754;2024-03-02T12:45:13;13.50;99.90
8862;DHT22;4799;50.996;4.754;2024-03-02T12:47:40;13.50;99.90
8862;DHT22;4799;50.996;4.754;2024-03-02T12:50:06;13.60;99.90
8862;DHT22;4799;50.996;4.754;2024-03-02T12:52:33;13.60;99.90
8862;DHT22;4799;50.996;4.754;2024-03-02T12:55:00;13.70;99.90
8862;DHT22;4799;50.996;4.754;2024-03-02T12:57:29;13.70;99.90
8862;DHT22;4799;50.996;4.754;2024-03-02T13:00:13;13.80;99.90
8862;DHT22;4799;50.996;4.754;2024-03-02T13:02:40;14.00;99.90
8862;DHT22;4799;50.996;4.754;2024-03-02T13:05:07;14.00;99.90
8862;DHT22;4799;50.996;4.754;2024-03-02T13:07:37;14.00;99.90
8862;DHT22;4799;50.996;4.754;2024-03-02T13:10:04;13.90;99.90
8862;DHT22;4799;50.996;4.754;2024-03-02T13:12:30;14.00;99.90
8862;DHT22;4799;50.996;4.754;2024-03-02T13:14:58;14.10;99.90
8862;DHT22;4799;50.996;4.754;2024-03-02T13:17:24;14.20;99.90
8862;DHT22;4799;50.996;4.754;2024-03-02T13:19:57;14.20;99.30
8862;DHT22;4799;50.996;4.754;2024-03-02T13:22:24;14.30;99.90
8862;DHT22;4799;50.996;4.754;2024-03-02T13:24:51;14.30;99.90
8862;DHT22;4799;50.996;4.754;2024-03-02T13:27:17;14.40;99.90
8862;DHT22;4799;50.996;4.754;2024-03-02T13:29:47;14.50;99.90
8862;DHT22;4799;50.996;4.754;2024-03-02T13:32:14;14.50;99.50
8862;DHT22;4799;50.996;4.754;2024-03-02T13:34:40;14.40;99.90
8862;DHT22;4799;50.996;4.754;2024-03-02T13:37:05;14.30;99.90
8862;DHT22;4799;50.996;4.754;2024-03-02T13:39:32;14.20;99.90
8862;DHT22;4799;50.996;4.754;2024-03-02T13:41:58;14.20;99.90
8862;DHT22;4799;50.996;4.754;2024-03-02T13:44:31;14.20;99.90
8862;DHT22;4799;50.996;4.754;2024-03-02T13:46:57;14.30;99.90
8862;DHT22;4799;50.996;4.754;2024-03-02T13:49:24;14.30;99.90
8862;DHT22;4799;50.996;4.754;2024-03-02T13:51:49;14.30;99.50
8862;DHT22;4799;50.996;4.754;2024-03-02T13:54:15;14.30;99.60
8862;DHT22;4799;50.996;4.754;2024-03-02T13:56:41;14.10;99.90
8862;DHT22;4799;50.996;4.754;2024-03-02T13:59:07;14.00;99.90
8862;DHT22;4799;50.996;4.754;2024-03-02T14:01:33;13.90;99.50
8862;DHT22;4799;50.996;4.754;2024-03-02T14:03:59;13.80;99.90
8862;DHT22;4799;50.996;4.754;2024-03-02T14:06:25;13.80;99.90
8862;DHT22;4799;50.996;4.754;2024-03-02T14:08:53;13.90;99.90
8862;DHT22;4799;50.996;4.754;2024-03-02T14:11:19;14.00;99.90
8862;DHT22;4799;50.996;4.754;2024-03-02T14:13:45;14.00;99.90
8862;DHT22;4799;50.996;4.754;2024-03-02T14:16:19;13.90;98.90
8862;DHT22;4799;50.996;4.754;2024-03-02T14:18:45;13.80;99.20
8862;DHT22;4799;50.996;4.754;2024-03-02T14:21:11;13.80;99.90
8862;DHT22;4799;50.996;4.754;2024-03-02T14:23:37;13.90;99.90
8862;DHT22;4799;50.996;4.754;2024-03-02T14:26:02;14.00;99.90
8862;DHT22;4799;50.996;4.754;2024-03-02T14:28:28;14.10;99.90
8862;DHT22;4799;50.996;4.754;2024-03-02T14:30:54;14.10;99.90
8862;DHT22;4799;50.996;4.754;2024-03-02T14:33:20;14.10;99.90
8862;DHT22;4799;50.996;4.754;2024-03-02T14:35:46;14.10;99.90
8862;DHT22;4799;50.996;4.754;2024-03-02T14:38:12;14.10;99.90
8862;DHT22;4799;50.996;4.754;2024-03-02T14:40:38;14.10;99.90
8862;DHT22;4799;50.996;4.754;2024-03-02T14:43:04;14.10;99.90
8862;DHT22;4799;50.996;4.754;2024-03-02T14:45:30;14.10;99.90
8862;DHT22;4799;50.996;4.754;2024-03-02T14:47:56;14.00;99.90
8862;DHT22;4799;50.996;4.754;2024-03-02T14:50:26;13.90;99.90
8862;DHT22;4799;50.996;4.754;2024-03-02T14:52:52;13.90;99.90
8862;DHT22;4799;50.996;4.754;2024-03-02T14:55:17;13.90;99.90
8862;DHT22;4799;50.996;4.754;2024-03-02T14:57:43;14.00;99.90
8862;DHT22;4799;50.996;4.754;2024-03-02T15:00:09;14.00;99.90
8862;DHT22;4799;50.996;4.754;2024-03-02T15:02:37;14.10;99.90
8862;DHT22;4799;50.996;4.754;2024-03-02T15:05:03;14.10;99.90
8862;DHT22;4799;50.996;4.754;2024-03-02T15:07:31;14.20;99.90
8862;DHT22;4799;50.996;4.754;2024-03-02T15:09:57;14.20;99.90
8862;DHT22;4799;50.996;4.754;2024-03-02T15:12:22;14.20;99.10
8862;DHT22;4799;50.996;4.754;2024-03-02T15:14:48;14.20;98.70
8862;DHT22;4799;50.996;4.754;2024-03-02T15:17:15;14.20;98.30
8862;DHT22;4799;50.996;4.754;2024-03-02T15:19:45;14.10;99.00
8862;DHT22;4799;50.996;4.754;2024-03-02T15:22:11;14.10;98.60
8862;DHT22;4799;50.996;4.754;2024-03-02T15:24:37;14.00;99.20
8862;DHT22;4799;50.996;4.754;2024-03-02T15:27:03;14.00;99.10
8862;DHT22;4799;50.996;4.754;2024-03-02T15:29:34;13.90;99.30
8862;DHT22;4799;50.996;4.754;2024-03-02T15:32:00;13.90;99.40
8862;DHT22;4799;50.996;4.754;2024-03-02T15:34:26;13.80;99.40
8862;DHT22;4799;50.996;4.754;2024-03-02T15:36:52;13.80;99.70
8862;DHT22;4799;50.996;4.754;2024-03-02T15:39:18;13.70;99.70
8862;DHT22;4799;50.996;4.754;2024-03-02T15:41:44;13.70;99.90
8862;DHT22;4799;50.996;4.754;2024-03-02T15:44:10;13.60;99.90
8862;DHT22;4799;50.996;4.754;2024-03-02T15:46:36;13.60;99.90
8862;DHT22;4799;50.996;4.754;2024-03-02T15:49:02;13.60;99.90
8862;DHT22;4799;50.996;4.754;2024-03-02T15:51:28;13.60;99.90
8862;DHT22;4799;50.996;4.754;2024-03-02T15:53:54;13.60;99.90
8862;DHT22;4799;50.996;4.754;2024-03-02T15:56:20;13.60;99.90
8862;DHT22;4799;50.996;4.754;2024-03-02T15:58:46;13.60;99.90
8862;DHT22;4799;50.996;4.754;2024-03-02T16:01:12;13.50;99.90
8862;DHT22;4799;50.996;4.754;2024-03-02T16:03:38;13.50;99.90
8862;DHT22;4799;50.996;4.754;2024-03-02T16:06:04;13.50;99.90
8862;DHT22;4799;50.996;4.754;2024-03-02T16:08:30;13.40;99.90
8862;DHT22;4799;50.996;4.754;2024-03-02T16:10:56;13.40;99.90
8862;DHT22;4799;50.996;4.754;2024-03-02T16:13:22;13.30;99.90
8862;DHT22;4799;50.996;4.754;2024-03-02T16:15:48;13.30;99.90